Time;durP1;ratioP1;P1;durP2;ratioP2;P2;SDS_P1;SDS_P2;PMS_P1;PMS_P2;Temp;Humidity;BMP_temperature;BMP_pressure;BME280_temperature;BME280_humidity;BME280_pressure;Samples;Min_cycle;Max_cycle;Signal;HPM_P1;HPM_P2
2022/07/22 00:02:25;;;;;;;0.07;0.07;;;;;;;;;;5067288;28;20048;-64
2022/07/22 00:04:51;;;;;;;0.00;0.00;;;;;;;;;;5067607;28;20131;-64
2022/07/22 00:07:17;;;;;;;0.00;0.00;;;;;;;;;;5067361;28;20064;-64
2022/07/22 00:09:43;;;;;;;0.00;0.00;;;;;;;;;;5066965;28;20477;-64
2022/07/22 00:12:09;;;;;;;0.00;0.00;;;;;;;;;;5067317;28;20071;-64
2022/07/22 00:14:35;;;;;;;0.00;0.00;;;;;;;;;;5067345;28;20056;-65
2022/07/22 00:17:01;;;;;;;0.00;0.00;;;;;;;;;;5067377;28;20045;-65
2022/07/22 00:19:27;;;;;;;0.20;0.20;;;;;;;;;;5066804;28;20048;-64
2022/07/22 00:21:54;;;;;;;0.20;0.20;;;;;;;;;;5067243;28;20422;-64
2022/07/22 00:24:20;;;;;;;0.07;0.07;;;;;;;;;;5067636;28;20131;-64
2022/07/22 00:26:46;;;;;;;0.00;0.00;;;;;;;;;;5067165;28;20080;-64
2022/07/22 00:29:12;;;;;;;1.13;0.43;;;;;;;;;;5066803;28;20091;-64
2022/07/22 00:31:38;;;;;;;0.33;0.20;;;;;;;;;;5067321;28;20136;-64
2022/07/22 00:34:04;;;;;;;0.50;0.50;;;;;;;;;;5067014;28;20080;-64
2022/07/22 00:36:30;;;;;;;0.00;0.00;;;;;;;;;;5067051;28;20051;-65
2022/07/22 00:38:57;;;;;;;0.10;0.07;;;;;;;;;;5065868;28;20049;-64
2022/07/22 00:41:23;;;;;;;0.00;0.00;;;;;;;;;;5069722;28;20080;-64
2022/07/22 00:43:59;;;;;;;0.00;0.00;;;;;;;;;;5070818;28;20180;-64
2022/07/22 00:46:26;;;;;;;0.00;0.00;;;;;;;;;;5070495;28;20380;-64
2022/07/22 00:48:52;;;;;;;0.00;0.00;;;;;;;;;;5070560;28;20044;-64
2022/07/22 00:51:19;;;;;;;0.00;0.00;;;;;;;;;;5070400;28;20049;-64
2022/07/22 00:53:46;;;;;;;0.00;0.00;;;;;;;;;;5069735;28;21050;-64
2022/07/22 00:56:12;;;;;;;0.53;0.10;;;;;;;;;;5070441;28;20047;-64
2022/07/22 00:58:38;;;;;;;0.00;0.00;;;;;;;;;;5070559;28;20487;-64
2022/07/22 01:01:04;;;;;;;0.00;0.00;;;;;;;;;;5070128;28;20127;-64
2022/07/22 01:03:30;;;;;;;0.00;0.00;;;;;;;;;;5070286;28;20192;-64
2022/07/22 01:05:56;;;;;;;0.00;0.00;;;;;;;;;;5069715;28;20051;-65
2022/07/22 01:08:22;;;;;;;0.20;0.20;;;;;;;;;;5070385;28;20040;-64
2022/07/22 01:10:48;;;;;;;0.10;0.03;;;;;;;;;;5070074;28;21391;-64
2022/07/22 01:13:15;;;;;;;0.10;0.10;;;;;;;;;;5069866;28;20140;-64
2022/07/22 01:15:41;;;;;;;0.77;0.10;;;;;;;;;;5069807;28;20048;-64
2022/07/22 01:18:07;;;;;;;0.00;0.00;;;;;;;;;;5070074;28;20446;-64
2022/07/22 01:20:33;;;;;;;0.00;0.00;;;;;;;;;;5070018;28;20094;-64
2022/07/22 01:22:59;;;;;;;1.60;0.77;;;;;;;;;;5069263;28;20052;-63
2022/07/22 01:25:25;;;;;;;0.00;0.00;;;;;;;;;;5070066;28;20051;-64
2022/07/22 01:27:51;;;;;;;0.53;0.13;;;;;;;;;;5069276;28;20044;-64
2022/07/22 01:30:17;;;;;;;0.00;0.00;;;;;;;;;;5069791;28;20503;-64
2022/07/22 01:32:43;;;;;;;0.00;0.00;;;;;;;;;;5069879;28;20044;-64
2022/07/22 01:35:09;;;;;;;0.13;0.13;;;;;;;;;;5069443;28;20566;-64
2022/07/22 01:37:36;;;;;;;0.00;0.00;;;;;;;;;;5069311;28;20565;-64
2022/07/22 01:40:02;;;;;;;0.00;0.00;;;;;;;;;;5069741;28;20426;-64
2022/07/22 01:42:28;;;;;;;0.00;0.00;;;;;;;;;;5068772;28;20498;-65
2022/07/22 01:44:54;;;;;;;0.00;0.00;;;;;;;;;;5068347;28;20563;-64
2022/07/22 01:47:20;;;;;;;0.00;0.00;;;;;;;;;;5069013;28;20060;-64
2022/07/22 01:49:46;;;;;;;0.53;0.27;;;;;;;;;;5069573;28;20037;-64
2022/07/22 01:52:12;;;;;;;0.00;0.00;;;;;;;;;;5067987;28;20040;-64
2022/07/22 01:54:38;;;;;;;0.00;0.00;;;;;;;;;;5069298;28;20044;-64
2022/07/22 01:57:04;;;;;;;0.00;0.00;;;;;;;;;;5069511;28;20502;-64
2022/07/22 01:59:30;;;;;;;0.00;0.00;;;;;;;;;;5069088;28;20800;-64
2022/07/22 02:01:56;;;;;;;0.00;0.00;;;;;;;;;;5068812;28;20045;-64
2022/07/22 02:04:22;;;;;;;0.47;0.10;;;;;;;;;;5069233;28;20045;-64
2022/07/22 02:06:48;;;;;;;0.00;0.00;;;;;;;;;;5069314;28;20052;-64
2022/07/22 02:09:14;;;;;;;0.00;0.00;;;;;;;;;;5068607;28;20101;-64
2022/07/22 02:11:40;;;;;;;0.03;0.03;;;;;;;;;;5069093;28;20051;-64
2022/07/22 02:14:06;;;;;;;0.00;0.00;;;;;;;;;;5068898;28;20163;-64
2022/07/22 02:16:32;;;;;;;0.00;0.00;;;;;;;;;;5068837;28;20052;-65
2022/07/22 02:18:59;;;;;;;0.10;0.10;;;;;;;;;;5068550;28;20407;-64
2022/07/22 02:21:25;;;;;;;0.00;0.00;;;;;;;;;;5068776;28;20121;-64
2022/07/22 02:23:51;;;;;;;0.00;0.00;;;;;;;;;;5068544;28;20040;-64
2022/07/22 02:26:17;;;;;;;0.33;0.20;;;;;;;;;;5068566;28;20044;-63
2022/07/22 02:28:43;;;;;;;0.00;0.00;;;;;;;;;;5068016;28;20517;-64
2022/07/22 02:31:09;;;;;;;0.00;0.00;;;;;;;;;;5068487;28;20538;-64
2022/07/22 02:33:35;;;;;;;0.20;0.20;;;;;;;;;;5068178;28;20135;-64
2022/07/22 02:36:01;;;;;;;0.00;0.00;;;;;;;;;;5067316;28;20044;-64
2022/07/22 02:38:27;;;;;;;0.00;0.00;;;;;;;;;;5068225;28;20083;-64
2022/07/22 02:40:53;;;;;;;0.00;0.00;;;;;;;;;;5068147;28;20051;-64
2022/07/22 02:43:19;;;;;;;0.00;0.00;;;;;;;;;;5067996;28;20057;-64
2022/07/22 02:45:45;;;;;;;0.00;0.00;;;;;;;;;;5068899;28;20055;-64
2022/07/22 02:48:11;;;;;;;0.10;0.10;;;;;;;;;;5068606;28;20098;-64
2022/07/22 02:50:38;;;;;;;0.00;0.00;;;;;;;;;;5069141;28;20052;-64
2022/07/22 02:53:04;;;;;;;0.03;0.03;;;;;;;;;;5066840;28;20124;-63
2022/07/22 02:55:30;;;;;;;0.00;0.00;;;;;;;;;;5068517;28;20048;-64
2022/07/22 02:57:56;;;;;;;0.00;0.00;;;;;;;;;;5069082;28;20123;-63
2022/07/22 03:00:22;;;;;;;0.00;0.00;;;;;;;;;;5068532;28;20110;-64
2022/07/22 03:02:48;;;;;;;0.00;0.00;;;;;;;;;;5068681;28;20498;-64
2022/07/22 03:05:14;;;;;;;0.10;0.10;;;;;;;;;;5068430;28;20048;-63
2022/07/22 03:07:40;;;;;;;0.13;0.13;;;;;;;;;;5068632;28;20048;-64
2022/07/22 03:10:08;;;;;;;0.00;0.00;;;;;;;;;;5068419;28;20384;-64
2022/07/22 03:12:34;;;;;;;0.00;0.00;;;;;;;;;;5068840;28;20056;-63
2022/07/22 03:15:00;;;;;;;0.00;0.00;;;;;;;;;;5068783;28;20047;-64
2022/07/22 03:17:26;;;;;;;0.00;0.00;;;;;;;;;;5067646;28;20048;-63
2022/07/22 03:19:52;;;;;;;0.00;0.00;;;;;;;;;;5068540;28;20445;-64
2022/07/22 03:22:18;;;;;;;0.00;0.00;;;;;;;;;;5068617;28;20090;-64
2022/07/22 03:24:44;;;;;;;0.00;0.00;;;;;;;;;;5068270;28;20044;-64
2022/07/22 03:27:10;;;;;;;0.00;0.00;;;;;;;;;;5067877;28;20097;-64
2022/07/22 03:29:36;;;;;;;0.00;0.00;;;;;;;;;;5068347;28;20052;-63
2022/07/22 03:32:03;;;;;;;0.00;0.00;;;;;;;;;;5068582;28;20129;-64
2022/07/22 03:34:29;;;;;;;0.00;0.00;;;;;;;;;;5068087;28;20086;-63
2022/07/22 03:36:55;;;;;;;0.00;0.00;;;;;;;;;;5068490;28;20079;-63
2022/07/22 03:39:21;;;;;;;0.00;0.00;;;;;;;;;;5068598;28;20466;-64
2022/07/22 03:41:47;;;;;;;0.00;0.00;;;;;;;;;;5067635;28;20095;-64
2022/07/22 03:44:13;;;;;;;0.23;0.23;;;;;;;;;;5068019;28;20102;-64
2022/07/22 03:46:39;;;;;;;0.00;0.00;;;;;;;;;;5068304;28;20418;-64
2022/07/22 03:49:05;;;;;;;0.00;0.00;;;;;;;;;;5068353;28;20074;-63
2022/07/22 03:51:31;;;;;;;0.07;0.07;;;;;;;;;;5067960;28;20044;-63
2022/07/22 03:53:57;;;;;;;0.10;0.10;;;;;;;;;;5067667;28;20091;-63
2022/07/22 03:56:23;;;;;;;0.13;0.13;;;;;;;;;;5068277;28;20044;-63
2022/07/22 03:58:49;;;;;;;0.00;0.00;;;;;;;;;;5067808;28;20044;-63
2022/07/22 04:01:15;;;;;;;0.00;0.00;;;;;;;;;;5068128;28;20061;-63
2022/07/22 04:03:41;;;;;;;0.00;0.00;;;;;;;;;;5068253;28;20040;-64
2022/07/22 04:06:07;;;;;;;0.00;0.00;;;;;;;;;;5067603;28;20499;-64
2022/07/22 04:08:33;;;;;;;0.10;0.10;;;;;;;;;;5067388;28;20055;-64
2022/07/22 04:10:59;;;;;;;0.00;0.00;;;;;;;;;;5067712;28;20080;-63
2022/07/22 04:13:25;;;;;;;0.00;0.00;;;;;;;;;;5067512;28;20066;-64
2022/07/22 04:15:51;;;;;;;0.00;0.00;;;;;;;;;;5070526;28;20055;-63
2022/07/22 04:18:18;;;;;;;0.00;0.00;;;;;;;;;;5070830;28;20119;-63
2022/07/22 04:20:44;;;;;;;0.00;0.00;;;;;;;;;;5070287;28;20583;-64
2022/07/22 04:23:10;;;;;;;0.00;0.00;;;;;;;;;;5071735;28;20143;-63
2022/07/22 04:25:36;;;;;;;0.00;0.00;;;;;;;;;;5070150;28;20569;-64
2022/07/22 04:28:02;;;;;;;0.00;0.00;;;;;;;;;;5071040;28;20041;-64
2022/07/22 04:30:28;;;;;;;0.00;0.00;;;;;;;;;;5071110;28;20044;-63
2022/07/22 04:32:54;;;;;;;0.00;0.00;;;;;;;;;;5071225;28;20131;-63
2022/07/22 04:35:20;;;;;;;0.00;0.00;;;;;;;;;;5071265;28;20086;-63
2022/07/22 04:37:46;;;;;;;0.00;0.00;;;;;;;;;;5070701;28;20045;-64
2022/07/22 04:40:12;;;;;;;0.63;0.20;;;;;;;;;;5071548;28;20414;-63
2022/07/22 04:42:38;;;;;;;0.00;0.00;;;;;;;;;;5069714;28;20558;-63
2022/07/22 04:45:04;;;;;;;0.00;0.00;;;;;;;;;;5071226;28;20102;-63
2022/07/22 04:47:30;;;;;;;0.17;0.17;;;;;;;;;;5070901;28;20473;-63
2022/07/22 04:49:56;;;;;;;0.00;0.00;;;;;;;;;;5070732;28;20070;-64
2022/07/22 04:52:22;;;;;;;0.00;0.00;;;;;;;;;;5070897;28;20094;-63
2022/07/22 04:54:49;;;;;;;0.00;0.00;;;;;;;;;;5070772;28;20051;-63
2022/07/22 04:57:15;;;;;;;0.00;0.00;;;;;;;;;;5070858;28;20123;-63
2022/07/22 04:59:41;;;;;;;0.00;0.00;;;;;;;;;;5070456;28;20460;-63
2022/07/22 05:02:07;;;;;;;0.20;0.20;;;;;;;;;;5070798;28;20041;-63
2022/07/22 05:04:33;;;;;;;0.03;0.03;;;;;;;;;;5070804;28;20071;-63
2022/07/22 05:06:59;;;;;;;0.00;0.00;;;;;;;;;;5070693;28;20494;-63
2022/07/22 05:09:25;;;;;;;0.00;0.00;;;;;;;;;;5068692;28;20295;-64
2022/07/22 05:11:51;;;;;;;0.00;0.00;;;;;;;;;;5070694;28;20086;-63
2022/07/22 05:14:17;;;;;;;0.03;0.03;;;;;;;;;;5070204;28;20086;-63
2022/07/22 05:16:43;;;;;;;0.10;0.10;;;;;;;;;;5070611;28;20098;-64
2022/07/22 05:19:09;;;;;;;0.00;0.00;;;;;;;;;;5070344;28;20048;-64
2022/07/22 05:21:35;;;;;;;0.00;0.00;;;;;;;;;;5070568;28;20048;-63
2022/07/22 05:24:01;;;;;;;0.00;0.00;;;;;;;;;;5070020;28;20415;-63
2022/07/22 05:26:32;;;;;;;0.00;0.00;;;;;;;;;;5070153;28;20133;-63
2022/07/22 05:28:58;;;;;;;0.10;0.10;;;;;;;;;;5069221;28;20139;-63
2022/07/22 05:31:24;;;;;;;0.00;0.00;;;;;;;;;;5069971;28;20508;-64
2022/07/22 05:33:50;;;;;;;0.00;0.00;;;;;;;;;;5069530;28;20041;-63
2022/07/22 05:36:16;;;;;;;0.00;0.00;;;;;;;;;;5070193;28;20414;-63
2022/07/22 05:38:42;;;;;;;0.00;0.00;;;;;;;;;;5069629;28;20632;-63
2022/07/22 05:41:08;;;;;;;0.00;0.00;;;;;;;;;;5070250;28;20044;-64
2022/07/22 05:43:34;;;;;;;0.03;0.03;;;;;;;;;;5069610;28;20056;-63
2022/07/22 05:46:00;;;;;;;0.10;0.10;;;;;;;;;;5069548;28;20153;-63
2022/07/22 05:48:26;;;;;;;0.00;0.00;;;;;;;;;;5069910;28;20051;-63
2022/07/22 05:50:52;;;;;;;0.00;0.00;;;;;;;;;;5069995;28;20040;-63
2022/07/22 05:53:18;;;;;;;0.00;0.00;;;;;;;;;;5069523;28;20417;-64
2022/07/22 05:55:45;;;;;;;0.43;0.33;;;;;;;;;;5069700;28;20048;-63
2022/07/22 05:58:11;;;;;;;0.00;0.00;;;;;;;;;;5068627;28;20044;-64
2022/07/22 06:00:37;;;;;;;0.00;0.00;;;;;;;;;;5069148;28;20083;-63
2022/07/22 06:03:03;;;;;;;0.00;0.00;;;;;;;;;;5069635;28;20490;-63
2022/07/22 06:05:29;;;;;;;0.20;0.20;;;;;;;;;;5069773;28;20040;-63
2022/07/22 06:07:55;;;;;;;0.00;0.00;;;;;;;;;;5054813;28;20045;-63
2022/07/22 06:10:21;;;;;;;0.00;0.00;;;;;;;;;;5056931;28;20128;-63
2022/07/22 06:12:47;;;;;;;0.10;0.10;;;;;;;;;;5069502;28;20052;-63
2022/07/22 06:15:13;;;;;;;0.00;0.00;;;;;;;;;;5064349;28;20040;-62
2022/07/22 06:17:39;;;;;;;0.07;0.00;;;;;;;;;;5068596;28;20040;-63
2022/07/22 06:20:05;;;;;;;0.10;0.10;;;;;;;;;;5066821;28;20041;-63
2022/07/22 06:22:31;;;;;;;0.20;0.20;;;;;;;;;;5059642;28;20048;-63
2022/07/22 06:24:57;;;;;;;0.10;0.10;;;;;;;;;;5069540;28;20055;-63
2022/07/22 06:27:23;;;;;;;0.00;0.00;;;;;;;;;;5056262;28;20053;-62
2022/07/22 06:29:49;;;;;;;0.00;0.00;;;;;;;;;;5053509;28;20483;-62
2022/07/22 06:32:15;;;;;;;0.00;0.00;;;;;;;;;;5050253;28;20382;-63
2022/07/22 06:34:41;;;;;;;0.20;0.20;;;;;;;;;;5060216;28;20060;-62
2022/07/22 06:37:08;;;;;;;0.00;0.00;;;;;;;;;;5049110;28;20048;-63
2022/07/22 06:39:36;;;;;;;0.10;0.10;;;;;;;;;;5049440;28;20517;-63
2022/07/22 06:42:02;;;;;;;0.00;0.00;;;;;;;;;;5049095;28;20049;-63
2022/07/22 06:44:28;;;;;;;0.00;0.00;;;;;;;;;;5049227;28;20211;-63
2022/07/22 06:46:54;;;;;;;0.00;0.00;;;;;;;;;;5031063;28;20092;-63
2022/07/22 06:49:20;;;;;;;0.10;0.10;;;;;;;;;;5050362;28;20064;-63
2022/07/22 06:51:46;;;;;;;0.00;0.00;;;;;;;;;;5048780;28;20056;-63
2022/07/22 06:54:12;;;;;;;0.00;0.00;;;;;;;;;;5049416;28;20045;-63
2022/07/22 06:56:38;;;;;;;0.00;0.00;;;;;;;;;;5048339;28;20480;-62
2022/07/22 06:59:04;;;;;;;0.00;0.00;;;;;;;;;;5048951;28;20045;-62
2022/07/22 07:01:30;;;;;;;0.10;0.10;;;;;;;;;;5048894;28;20045;-63
2022/07/22 07:03:56;;;;;;;0.00;0.00;;;;;;;;;;5048704;28;20167;-63
2022/07/22 07:06:22;;;;;;;0.00;0.00;;;;;;;;;;5048903;28;20529;-63
2022/07/22 07:08:48;;;;;;;0.10;0.10;;;;;;;;;;5049126;28;20057;-62
2022/07/22 07:11:14;;;;;;;1.17;0.60;;;;;;;;;;5048997;28;20044;-62
2022/07/22 07:13:40;;;;;;;0.10;0.10;;;;;;;;;;5050049;28;20045;-62
2022/07/22 07:16:06;;;;;;;0.00;0.00;;;;;;;;;;5069047;28;20045;-62
2022/07/22 07:18:32;;;;;;;0.00;0.00;;;;;;;;;;5068576;28;20048;-62
2022/07/22 07:20:58;;;;;;;0.20;0.10;;;;;;;;;;5067209;28;20048;-62
2022/07/22 07:23:24;;;;;;;2.93;0.33;;;;;;;;;;5067777;28;20048;-62
2022/07/22 07:25:50;;;;;;;0.00;0.00;;;;;;;;;;5068849;28;20047;-62
2022/07/22 07:28:17;;;;;;;0.00;0.00;;;;;;;;;;5068420;28;20537;-63
2022/07/22 07:30:43;;;;;;;0.17;0.13;;;;;;;;;;5068547;28;20556;-62
2022/07/22 07:33:09;;;;;;;0.07;0.07;;;;;;;;;;5068148;28;20084;-62
2022/07/22 07:35:35;;;;;;;2.40;0.30;;;;;;;;;;5068689;28;20494;-62
2022/07/22 07:38:01;;;;;;;0.00;0.00;;;;;;;;;;5056626;28;20307;-62
2022/07/22 07:40:27;;;;;;;0.00;0.00;;;;;;;;;;5049008;28;20049;-62
2022/07/22 07:42:53;;;;;;;0.00;0.00;;;;;;;;;;5048812;28;20057;-63
2022/07/22 07:45:19;;;;;;;0.10;0.10;;;;;;;;;;5049332;28;20581;-62
2022/07/22 07:47:45;;;;;;;0.00;0.00;;;;;;;;;;5048296;28;20084;-62
2022/07/22 07:50:11;;;;;;;0.10;0.10;;;;;;;;;;5053313;28;20051;-63
2022/07/22 07:52:38;;;;;;;0.50;0.30;;;;;;;;;;5069800;28;20054;-62
2022/07/22 07:55:05;;;;;;;0.50;0.20;;;;;;;;;;5072618;28;20644;-62
2022/07/22 07:57:31;;;;;;;0.00;0.00;;;;;;;;;;5072358;28;20053;-62
2022/07/22 07:59:57;;;;;;;0.00;0.00;;;;;;;;;;5071933;28;20461;-62
2022/07/22 08:02:23;;;;;;;0.13;0.13;;;;;;;;;;5070200;28;20094;-62
2022/07/22 08:04:49;;;;;;;0.57;0.53;;;;;;;;;;5072381;28;20045;-63
2022/07/22 08:07:15;;;;;;;0.00;0.00;;;;;;;;;;5069905;28;20102;-61
2022/07/22 08:09:41;;;;;;;0.53;0.53;;;;;;;;;;5072358;28;20048;-62
2022/07/22 08:12:07;;;;;;;0.00;0.00;;;;;;;;;;5071523;28;20048;-62
2022/07/22 08:14:33;;;;;;;0.30;0.20;;;;;;;;;;5071551;28;20049;-62
2022/07/22 08:17:00;;;;;;;0.50;0.30;;;;;;;;;;5071388;28;20418;-62
2022/07/22 08:19:26;;;;;;;0.37;0.30;;;;;;;;;;5071355;28;20044;-61
2022/07/22 08:21:52;;;;;;;0.00;0.00;;;;;;;;;;5071273;28;20063;-62
2022/07/22 08:24:18;;;;;;;0.00;0.00;;;;;;;;;;5071182;28;20063;-61
2022/07/22 08:26:44;;;;;;;7.10;0.83;;;;;;;;;;5071437;28;20474;-61
2022/07/22 08:29:10;;;;;;;0.00;0.00;;;;;;;;;;5069885;28;20045;-62
2022/07/22 08:31:37;;;;;;;0.00;0.00;;;;;;;;;;5071420;28;20071;-62
2022/07/22 08:34:04;;;;;;;0.70;0.57;;;;;;;;;;5071239;28;20044;-61
2022/07/22 08:36:30;;;;;;;0.00;0.00;;;;;;;;;;5071347;28;20048;-62
2022/07/22 08:38:56;;;;;;;0.00;0.00;;;;;;;;;;5071730;28;20040;-61
2022/07/22 08:41:23;;;;;;;0.00;0.00;;;;;;;;;;5071292;28;20037;-61
2022/07/22 08:43:49;;;;;;;0.00;0.00;;;;;;;;;;5069934;28;20049;-61
2022/07/22 08:46:15;;;;;;;0.10;0.10;;;;;;;;;;5069883;28;20051;-61
2022/07/22 08:48:41;;;;;;;0.33;0.33;;;;;;;;;;5069700;28;20040;-61
2022/07/22 08:51:07;;;;;;;0.00;0.00;;;;;;;;;;5070022;28;20095;-61
2022/07/22 08:53:34;;;;;;;0.00;0.00;;;;;;;;;;5069069;28;20063;-61
2022/07/22 08:56:00;;;;;;;0.47;0.13;;;;;;;;;;5069616;28;20040;-61
2022/07/22 08:58:27;;;;;;;0.10;0.10;;;;;;;;;;5069772;28;20499;-61
2022/07/22 09:01:12;;;;;;;0.47;0.30;;;;;;;;;;5069285;28;20045;-61
2022/07/22 09:03:49;;;;;;;0.00;0.00;;;;;;;;;;5069681;28;20561;-61
2022/07/22 09:06:15;;;;;;;0.03;0.03;;;;;;;;;;5069719;28;20064;-61
2022/07/22 09:08:59;;;;;;;0.17;0.17;;;;;;;;;;5070540;28;20041;-61
2022/07/22 09:11:30;;;;;;;0.70;0.05;;;;;;;;;;5069188;28;20073;-61
2022/07/22 09:13:57;;;;;;;0.53;0.17;;;;;;;;;;5069516;28;20040;-61
2022/07/22 09:16:42;;;;;;;0.30;0.20;;;;;;;;;;5069569;28;20615;-61
2022/07/22 09:19:09;;;;;;;0.00;0.00;;;;;;;;;;5069180;28;20051;-61
2022/07/22 09:21:36;;;;;;;0.30;0.27;;;;;;;;;;5069123;28;20055;-61
2022/07/22 09:24:03;;;;;;;0.43;0.43;;;;;;;;;;5069509;28;20048;-61
2022/07/22 09:26:30;;;;;;;0.00;0.00;;;;;;;;;;5069324;28;20442;-61
2022/07/22 09:28:57;;;;;;;0.00;0.00;;;;;;;;;;5068962;28;20517;-61
2022/07/22 09:31:29;;;;;;;0.10;0.10;;;;;;;;;;5068994;28;20051;-61
2022/07/22 09:33:55;;;;;;;0.63;0.63;;;;;;;;;;5068921;28;20410;-61
2022/07/22 09:36:21;;;;;;;0.00;0.00;;;;;;;;;;5069180;28;20045;-61
2022/07/22 09:38:47;;;;;;;0.77;0.73;;;;;;;;;;5069245;28;20048;-61
2022/07/22 09:41:13;;;;;;;0.00;0.00;;;;;;;;;;5069074;28;20067;-61
2022/07/22 09:43:40;;;;;;;0.13;0.10;;;;;;;;;;5031897;28;1068635;-61
2022/07/22 09:46:08;;;;;;;0.00;0.00;;;;;;;;;;5069848;28;20471;-62
2022/07/22 09:48:34;;;;;;;0.00;0.00;;;;;;;;;;5070047;28;20067;-61
2022/07/22 09:51:00;;;;;;;0.40;0.30;;;;;;;;;;5069888;28;20052;-61
2022/07/22 09:53:30;;;;;;;0.10;0.10;;;;;;;;;;5069857;28;20098;-61
2022/07/22 09:56:00;;;;;;;0.00;0.00;;;;;;;;;;5069767;28;20063;-61
2022/07/22 09:58:27;;;;;;;2.70;1.00;;;;;;;;;;5069085;28;20049;-61
2022/07/22 10:00:53;;;;;;;0.93;0.47;;;;;;;;;;5069725;28;20045;-62
2022/07/22 10:03:24;;;;;;;0.00;0.00;;;;;;;;;;5069901;28;20041;-61
2022/07/22 10:05:50;;;;;;;1.03;0.43;;;;;;;;;;5069747;28;20883;-61
2022/07/22 10:08:16;;;;;;;0.10;0.10;;;;;;;;;;5069625;28;20069;-61
2022/07/22 10:10:42;;;;;;;0.00;0.00;;;;;;;;;;5069123;28;20036;-61
2022/07/22 10:13:09;;;;;;;0.10;0.10;;;;;;;;;;5068539;28;20130;-61
2022/07/22 10:15:35;;;;;;;0.00;0.00;;;;;;;;;;5068919;28;20132;-61
2022/07/22 10:18:04;;;;;;;0.30;0.20;;;;;;;;;;5069283;28;20040;-61
2022/07/22 10:20:31;;;;;;;0.00;0.00;;;;;;;;;;5069094;28;20094;-61
2022/07/22 10:23:01;;;;;;;0.93;0.30;;;;;;;;;;5068972;28;20040;-61
2022/07/22 10:25:28;;;;;;;0.00;0.00;;;;;;;;;;5069219;28;20499;-61
2022/07/22 10:28:05;;;;;;;0.17;0.17;;;;;;;;;;5069267;28;20098;-61
2022/07/22 10:30:33;;;;;;;0.10;0.10;;;;;;;;;;5069719;28;20044;-61
2022/07/22 10:33:02;;;;;;;0.00;0.00;;;;;;;;;;5069547;28;20058;-61
2022/07/22 10:35:28;;;;;;;0.10;0.10;;;;;;;;;;5069508;28;20072;-61
2022/07/22 10:37:56;;;;;;;0.13;0.13;;;;;;;;;;5069734;28;20040;-61
2022/07/22 10:40:32;;;;;;;0.17;0.13;;;;;;;;;;5069503;28;20055;-61
2022/07/22 10:42:58;;;;;;;0.10;0.10;;;;;;;;;;5057707;28;20430;-61
2022/07/22 10:45:25;;;;;;;0.00;0.00;;;;;;;;;;5060549;28;20057;-61
2022/07/22 10:47:58;;;;;;;0.83;0.10;;;;;;;;;;5057062;28;20128;-61
2022/07/22 10:50:37;;;;;;;0.00;0.00;;;;;;;;;;5057547;28;20415;-61
2022/07/22 10:53:07;;;;;;;0.00;0.00;;;;;;;;;;5059547;28;20053;-61
2022/07/22 10:55:34;;;;;;;0.00;0.00;;;;;;;;;;5058589;28;20576;-61
2022/07/22 10:58:00;;;;;;;0.00;0.00;;;;;;;;;;5058172;28;20467;-62
2022/07/22 11:00:26;;;;;;;0.00;0.00;;;;;;;;;;5058547;28;20045;-61
2022/07/22 11:02:52;;;;;;;0.20;0.20;;;;;;;;;;5057687;28;20039;-61
2022/07/22 11:05:30;;;;;;;1.80;0.97;;;;;;;;;;5059130;28;20094;-61
2022/07/22 11:07:56;;;;;;;0.67;0.40;;;;;;;;;;5059563;28;20055;-61
2022/07/22 11:10:22;;;;;;;0.00;0.00;;;;;;;;;;5057928;28;20094;-61
2022/07/22 11:12:49;;;;;;;0.00;0.00;;;;;;;;;;5058603;28;20041;-62
2022/07/22 11:15:15;;;;;;;0.00;0.00;;;;;;;;;;5048936;28;20071;-61
2022/07/22 11:17:41;;;;;;;0.30;0.20;;;;;;;;;;5049673;28;20463;-62
2022/07/22 11:20:09;;;;;;;0.00;0.00;;;;;;;;;;5049768;28;20414;-61
2022/07/22 11:22:36;;;;;;;0.20;0.20;;;;;;;;;;5056408;28;20047;-61
2022/07/22 11:25:06;;;;;;;2.13;0.13;;;;;;;;;;5054326;28;20045;-61
2022/07/22 11:27:33;;;;;;;0.00;0.00;;;;;;;;;;5049118;28;20783;-63
2022/07/22 11:29:59;;;;;;;0.00;0.00;;;;;;;;;;5049679;28;20095;-61
2022/07/22 11:32:27;;;;;;;0.00;0.00;;;;;;;;;;5049226;28;20071;-61
2022/07/22 11:34:53;;;;;;;0.00;0.00;;;;;;;;;;5049028;28;20037;-61
2022/07/22 11:37:23;;;;;;;0.00;0.00;;;;;;;;;;5048920;28;20045;-61
2022/07/22 11:39:50;;;;;;;1.40;0.60;;;;;;;;;;5049380;28;20052;-61
2022/07/22 11:42:16;;;;;;;0.00;0.00;;;;;;;;;;5049632;28;20045;-61
2022/07/22 11:44:42;;;;;;;0.00;0.00;;;;;;;;;;5048868;28;20056;-61
2022/07/22 11:47:08;;;;;;;0.10;0.10;;;;;;;;;;5049511;28;20530;-61
2022/07/22 11:49:36;;;;;;;0.00;0.00;;;;;;;;;;5049053;28;20048;-61
2022/07/22 11:52:08;;;;;;;0.00;0.00;;;;;;;;;;5049296;28;20049;-61
2022/07/22 11:54:34;;;;;;;0.00;0.00;;;;;;;;;;5048771;28;20502;-61
2022/07/22 11:57:01;;;;;;;0.00;0.00;;;;;;;;;;5049202;28;20048;-61
2022/07/22 11:59:27;;;;;;;0.27;0.23;;;;;;;;;;5048695;28;20095;-61
2022/07/22 12:01:54;;;;;;;0.00;0.00;;;;;;;;;;5048377;28;20507;-61
2022/07/22 12:04:25;;;;;;;0.00;0.00;;;;;;;;;;5057778;28;20109;-61
2022/07/22 12:06:53;;;;;;;0.00;0.00;;;;;;;;;;5057155;28;20073;-61
2022/07/22 12:09:19;;;;;;;0.40;0.33;;;;;;;;;;5057882;28;20040;-61
2022/07/22 12:11:49;;;;;;;0.00;0.00;;;;;;;;;;5064521;28;20048;-61
2022/07/22 12:14:16;;;;;;;0.00;0.00;;;;;;;;;;5068895;28;20044;-61
2022/07/22 12:16:44;;;;;;;0.00;0.00;;;;;;;;;;5068876;28;20055;-61
2022/07/22 12:19:12;;;;;;;0.00;0.00;;;;;;;;;;5068981;28;20048;-61
2022/07/22 12:21:58;;;;;;;0.77;0.20;;;;;;;;;;5068186;28;20390;-61
2022/07/22 12:24:32;;;;;;;0.17;0.10;;;;;;;;;;5068656;28;20041;-61
2022/07/22 12:27:03;;;;;;;0.00;0.00;;;;;;;;;;5068918;28;20052;-61
2022/07/22 12:29:30;;;;;;;0.00;0.00;;;;;;;;;;5068859;28;20040;-61
2022/07/22 12:32:01;;;;;;;0.10;0.10;;;;;;;;;;5068808;28;20052;-61
2022/07/22 12:34:37;;;;;;;0.00;0.00;;;;;;;;;;5068369;28;20495;-61
2022/07/22 12:37:14;;;;;;;0.20;0.20;;;;;;;;;;5071478;28;20044;-61
2022/07/22 12:39:52;;;;;;;0.20;0.20;;;;;;;;;;5071936;28;20051;-61
2022/07/22 12:42:18;;;;;;;0.10;0.10;;;;;;;;;;5071740;28;20131;-61
2022/07/22 12:44:53;;;;;;;0.30;0.30;;;;;;;;;;5071431;28;20048;-61
2022/07/22 12:47:38;;;;;;;0.00;0.00;;;;;;;;;;5071137;28;20140;-61
2022/07/22 12:50:23;;;;;;;0.00;0.00;;;;;;;;;;5070977;28;20166;-61
2022/07/22 12:52:49;;;;;;;1.80;0.30;;;;;;;;;;5071081;28;20047;-61
2022/07/22 12:55:15;;;;;;;0.10;0.10;;;;;;;;;;5069722;28;20052;-61
2022/07/22 12:57:42;;;;;;;0.00;0.00;;;;;;;;;;5070499;28;20566;-61
2022/07/22 13:00:08;;;;;;;0.10;0.10;;;;;;;;;;5070960;28;20090;-61
2022/07/22 13:02:34;;;;;;;0.00;0.00;;;;;;;;;;5070921;28;20041;-61
2022/07/22 13:05:00;;;;;;;0.30;0.30;;;;;;;;;;5071017;28;20052;-60
2022/07/22 13:07:26;;;;;;;0.00;0.00;;;;;;;;;;5070581;28;20040;-61
2022/07/22 13:09:52;;;;;;;0.00;0.00;;;;;;;;;;5070717;28;20097;-61
2022/07/22 13:12:18;;;;;;;0.08;0.08;;;;;;;;;;5070751;28;20413;-61
2022/07/22 13:14:44;;;;;;;0.00;0.00;;;;;;;;;;5070722;28;20037;-61
2022/07/22 13:17:12;;;;;;;0.00;0.00;;;;;;;;;;5070403;28;20067;-61
2022/07/22 13:19:38;;;;;;;0.10;0.10;;;;;;;;;;5070341;28;20060;-61
2022/07/22 13:22:04;;;;;;;0.10;0.10;;;;;;;;;;5070785;28;20036;-61
2022/07/22 13:24:30;;;;;;;0.10;0.10;;;;;;;;;;5070288;28;20114;-61
2022/07/22 13:26:56;;;;;;;0.00;0.00;;;;;;;;;;5070058;28;20052;-61
2022/07/22 13:29:22;;;;;;;0.43;0.30;;;;;;;;;;5070428;28;20048;-61
2022/07/22 13:31:49;;;;;;;0.10;0.10;;;;;;;;;;5070239;28;20028;-61
2022/07/22 13:34:15;;;;;;;0.00;0.00;;;;;;;;;;5070111;28;20048;-61
2022/07/22 13:36:41;;;;;;;0.00;0.00;;;;;;;;;;5070212;28;20414;-60
2022/07/22 13:39:07;;;;;;;0.00;0.00;;;;;;;;;;5070105;28;20041;-61
2022/07/22 13:41:33;;;;;;;0.00;0.00;;;;;;;;;;5069843;28;21037;-61
2022/07/22 13:43:59;;;;;;;0.70;0.40;;;;;;;;;;5070158;28;20420;-61
2022/07/22 13:46:25;;;;;;;0.40;0.38;;;;;;;;;;5069921;28;20048;-61
2022/07/22 13:48:53;;;;;;;0.00;0.00;;;;;;;;;;5069008;28;20045;-61
2022/07/22 13:51:19;;;;;;;0.90;0.75;;;;;;;;;;5069502;28;20071;-61
2022/07/22 13:53:45;;;;;;;0.00;0.00;;;;;;;;;;5070138;28;20041;-61
2022/07/22 13:56:11;;;;;;;0.10;0.10;;;;;;;;;;5069656;28;20084;-61
2022/07/22 13:58:39;;;;;;;0.00;0.00;;;;;;;;;;5069690;28;20041;-60
2022/07/22 14:01:06;;;;;;;0.10;0.10;;;;;;;;;;5069918;28;20056;-61
2022/07/22 14:03:32;;;;;;;0.15;0.15;;;;;;;;;;5069615;28;20051;-61
2022/07/22 14:05:58;;;;;;;0.00;0.00;;;;;;;;;;5069676;28;20040;-61
2022/07/22 14:08:24;;;;;;;0.03;0.03;;;;;;;;;;5069655;28;20083;-60
2022/07/22 14:10:50;;;;;;;0.00;0.00;;;;;;;;;;5069651;28;20084;-61
2022/07/22 14:13:16;;;;;;;0.00;0.00;;;;;;;;;;5069266;28;20510;-60
2022/07/22 14:15:42;;;;;;;0.00;0.00;;;;;;;;;;5069656;28;20080;-61
2022/07/22 14:18:08;;;;;;;0.10;0.10;;;;;;;;;;5069664;28;20048;-61
2022/07/22 14:20:35;;;;;;;0.17;0.17;;;;;;;;;;5068984;28;20047;-61
2022/07/22 14:23:01;;;;;;;0.08;0.08;;;;;;;;;;5069393;28;20076;-61
2022/07/22 14:25:28;;;;;;;0.00;0.00;;;;;;;;;;5069034;28;20040;-61
2022/07/22 14:27:54;;;;;;;0.00;0.00;;;;;;;;;;5069276;28;20055;-60
2022/07/22 14:30:20;;;;;;;0.00;0.00;;;;;;;;;;5069172;28;20044;-61
2022/07/22 14:32:46;;;;;;;0.20;0.20;;;;;;;;;;5069046;28;20071;-61
2022/07/22 14:35:12;;;;;;;0.08;0.08;;;;;;;;;;5068942;28;20080;-61
2022/07/22 14:37:38;;;;;;;0.00;0.00;;;;;;;;;;5069043;28;20051;-60
2022/07/22 14:40:04;;;;;;;0.00;0.00;;;;;;;;;;5068542;28;20524;-60
2022/07/22 14:42:30;;;;;;;0.00;0.00;;;;;;;;;;5068624;28;20582;-61